sensor_id;sensor_type;location;lat;lon;timestamp;P1;durP1;ratioP1;P2;durP2;ratioP2
53151;SDS011;39234;53.158;6.322;2022-08-21T00:01:16;8.32;;;4.47;;
53151;SDS011;39234;53.158;6.322;2022-08-21T00:03:45;8.00;;;4.82;;
53151;SDS011;39234;53.158;6.322;2022-08-21T00:06:11;9.10;;;5.00;;
53151;SDS011;39234;53.158;6.322;2022-08-21T00:08:37;13.38;;;5.35;;
53151;SDS011;39234;53.158;6.322;2022-08-21T00:11:03;9.40;;;5.50;;
53151;SDS011;39234;53.158;6.322;2022-08-21T00:13:29;11.27;;;4.90;;
53151;SDS011;39234;53.158;6.322;2022-08-21T00:15:55;10.55;;;5.18;;
53151;SDS011;39234;53.158;6.322;2022-08-21T00:18:21;11.27;;;5.25;;
53151;SDS011;39234;53.158;6.322;2022-08-21T00:20:47;11.18;;;4.93;;
53151;SDS011;39234;53.158;6.322;2022-08-21T00:23:14;9.85;;;5.05;;
53151;SDS011;39234;53.158;6.322;2022-08-21T00:25:41;10.95;;;5.78;;
53151;SDS011;39234;53.158;6.322;2022-08-21T00:28:08;7.55;;;5.40;;
53151;SDS011;39234;53.158;6.322;2022-08-21T00:30:34;11.13;;;6.07;;
53151;SDS011;39234;53.158;6.322;2022-08-21T00:33:00;9.88;;;5.25;;
53151;SDS011;39234;53.158;6.322;2022-08-21T00:35:31;11.32;;;6.00;;
53151;SDS011;39234;53.158;6.322;2022-08-21T00:38:03;9.48;;;4.90;;
53151;SDS011;39234;53.158;6.322;2022-08-21T00:40:38;10.60;;;4.90;;
53151;SDS011;39234;53.158;6.322;2022-08-21T00:43:14;8.98;;;4.70;;
53151;SDS011;39234;53.158;6.322;2022-08-21T00:45:41;7.40;;;4.30;;
53151;SDS011;39234;53.158;6.322;2022-08-21T00:48:07;10.48;;;5.50;;
53151;SDS011;39234;53.158;6.322;2022-08-21T00:50:35;8.98;;;5.05;;
53151;SDS011;39234;53.158;6.322;2022-08-21T00:53:06;7.07;;;4.47;;
53151;SDS011;39234;53.158;6.322;2022-08-21T00:55:34;8.65;;;4.63;;
53151;SDS011;39234;53.158;6.322;2022-08-21T00:58:02;6.93;;;4.30;;
53151;SDS011;39234;53.158;6.322;2022-08-21T01:00:32;7.15;;;4.47;;
53151;SDS011;39234;53.158;6.322;2022-08-21T01:03:02;7.75;;;5.00;;
53151;SDS011;39234;53.158;6.322;2022-08-21T01:05:31;13.00;;;6.25;;
53151;SDS011;39234;53.158;6.322;2022-08-21T01:07:57;11.30;;;5.70;;
53151;SDS011;39234;53.158;6.322;2022-08-21T01:10:23;16.05;;;7.90;;
53151;SDS011;39234;53.158;6.322;2022-08-21T01:12:49;13.75;;;8.55;;
53151;SDS011;39234;53.158;6.322;2022-08-21T01:15:17;14.98;;;8.60;;
53151;SDS011;39234;53.158;6.322;2022-08-21T01:17:45;16.95;;;8.10;;
53151;SDS011;39234;53.158;6.322;2022-08-21T01:20:11;13.48;;;7.70;;
53151;SDS011;39234;53.158;6.322;2022-08-21T01:22:38;11.98;;;7.85;;
53151;SDS011;39234;53.158;6.322;2022-08-21T01:25:05;13.15;;;6.93;;
53151;SDS011;39234;53.158;6.322;2022-08-21T01:27:32;11.93;;;5.45;;
53151;SDS011;39234;53.158;6.322;2022-08-21T01:29:59;8.35;;;5.00;;
53151;SDS011;39234;53.158;6.322;2022-08-21T01:32:32;13.20;;;6.40;;
53151;SDS011;39234;53.158;6.322;2022-08-21T01:34:58;13.60;;;6.40;;
53151;SDS011;39234;53.158;6.322;2022-08-21T01:37:24;14.95;;;7.10;;
53151;SDS011;39234;53.158;6.322;2022-08-21T01:39:50;10.88;;;6.65;;
53151;SDS011;39234;53.158;6.322;2022-08-21T01:42:15;11.38;;;6.68;;
53151;SDS011;39234;53.158;6.322;2022-08-21T01:44:42;10.80;;;7.25;;
53151;SDS011;39234;53.158;6.322;2022-08-21T01:47:09;17.20;;;7.40;;
53151;SDS011;39234;53.158;6.322;2022-08-21T01:49:38;14.27;;;6.78;;
53151;SDS011;39234;53.158;6.322;2022-08-21T01:52:04;10.13;;;5.30;;
53151;SDS011;39234;53.158;6.322;2022-08-21T01:54:31;10.23;;;4.72;;
53151;SDS011;39234;53.158;6.322;2022-08-21T01:56:57;11.27;;;5.10;;
53151;SDS011;39234;53.158;6.322;2022-08-21T01:59:26;9.70;;;5.63;;
53151;SDS011;39234;53.158;6.322;2022-08-21T02:01:52;11.88;;;6.40;;
53151;SDS011;39234;53.158;6.322;2022-08-21T02:04:21;15.77;;;6.40;;
53151;SDS011;39234;53.158;6.322;2022-08-21T02:06:48;12.63;;;6.72;;
53151;SDS011;39234;53.158;6.322;2022-08-21T02:09:14;13.65;;;7.82;;
53151;SDS011;39234;53.158;6.322;2022-08-21T02:11:40;18.38;;;8.40;;
53151;SDS011;39234;53.158;6.322;2022-08-21T02:14:07;15.88;;;8.68;;
53151;SDS011;39234;53.158;6.322;2022-08-21T02:16:34;14.13;;;7.90;;
53151;SDS011;39234;53.158;6.322;2022-08-21T02:19:00;16.75;;;8.43;;
53151;SDS011;39234;53.158;6.322;2022-08-21T02:21:26;15.63;;;8.20;;
53151;SDS011;39234;53.158;6.322;2022-08-21T02:23:52;14.98;;;8.27;;
53151;SDS011;39234;53.158;6.322;2022-08-21T02:26:17;17.92;;;8.77;;
53151;SDS011;39234;53.158;6.322;2022-08-21T02:28:43;15.20;;;8.90;;
53151;SDS011;39234;53.158;6.322;2022-08-21T02:31:09;16.83;;;8.45;;
53151;SDS011;39234;53.158;6.322;2022-08-21T02:33:35;15.00;;;8.85;;
53151;SDS011;39234;53.158;6.322;2022-08-21T02:36:01;18.05;;;9.18;;
53151;SDS011;39234;53.158;6.322;2022-08-21T02:38:30;13.68;;;8.15;;
53151;SDS011;39234;53.158;6.322;2022-08-21T02:40:58;12.43;;;8.82;;
53151;SDS011;39234;53.158;6.322;2022-08-21T02:43:26;14.15;;;9.63;;
53151;SDS011;39234;53.158;6.322;2022-08-21T02:45:53;15.63;;;9.35;;
53151;SDS011;39234;53.158;6.322;2022-08-21T02:48:22;17.85;;;8.85;;
53151;SDS011;39234;53.158;6.322;2022-08-21T02:50:53;12.55;;;8.18;;
53151;SDS011;39234;53.158;6.322;2022-08-21T02:53:25;15.48;;;8.02;;
53151;SDS011;39234;53.158;6.322;2022-08-21T02:55:52;16.20;;;10.10;;
53151;SDS011;39234;53.158;6.322;2022-08-21T02:58:20;13.60;;;10.07;;
53151;SDS011;39234;53.158;6.322;2022-08-21T03:00:48;15.82;;;9.70;;
53151;SDS011;39234;53.158;6.322;2022-08-21T03:03:14;16.23;;;10.68;;
53151;SDS011;39234;53.158;6.322;2022-08-21T03:05:40;17.58;;;9.25;;
53151;SDS011;39234;53.158;6.322;2022-08-21T03:08:07;15.98;;;10.52;;
53151;SDS011;39234;53.158;6.322;2022-08-21T03:10:35;15.25;;;9.65;;
53151;SDS011;39234;53.158;6.322;2022-08-21T03:13:06;20.40;;;9.88;;
53151;SDS011;39234;53.158;6.322;2022-08-21T03:15:33;17.33;;;10.05;;
53151;SDS011;39234;53.158;6.322;2022-08-21T03:17:59;17.67;;;9.55;;
53151;SDS011;39234;53.158;6.322;2022-08-21T03:20:26;18.83;;;9.95;;
53151;SDS011;39234;53.158;6.322;2022-08-21T03:22:53;15.63;;;8.98;;
53151;SDS011;39234;53.158;6.322;2022-08-21T03:25:20;15.82;;;10.38;;
53151;SDS011;39234;53.158;6.322;2022-08-21T03:27:46;16.17;;;9.90;;
53151;SDS011;39234;53.158;6.322;2022-08-21T03:30:14;17.33;;;10.00;;
53151;SDS011;39234;53.158;6.322;2022-08-21T03:32:41;13.60;;;9.73;;
53151;SDS011;39234;53.158;6.322;2022-08-21T03:35:07;16.35;;;10.45;;
53151;SDS011;39234;53.158;6.322;2022-08-21T03:37:33;16.63;;;9.95;;
53151;SDS011;39234;53.158;6.322;2022-08-21T03:39:59;17.67;;;10.57;;
53151;SDS011;39234;53.158;6.322;2022-08-21T03:42:25;17.45;;;9.23;;
53151;SDS011;39234;53.158;6.322;2022-08-21T03:44:50;17.60;;;10.80;;
53151;SDS011;39234;53.158;6.322;2022-08-21T03:47:16;18.17;;;10.57;;
53151;SDS011;39234;53.158;6.322;2022-08-21T03:49:42;16.38;;;9.32;;
53151;SDS011;39234;53.158;6.322;2022-08-21T03:52:08;14.35;;;9.20;;
53151;SDS011;39234;53.158;6.322;2022-08-21T03:54:33;14.00;;;9.95;;
53151;SDS011;39234;53.158;6.322;2022-08-21T03:56:59;17.67;;;9.18;;
53151;SDS011;39234;53.158;6.322;2022-08-21T03:59:25;16.33;;;9.80;;
53151;SDS011;39234;53.158;6.322;2022-08-21T04:01:52;16.92;;;9.95;;
53151;SDS011;39234;53.158;6.322;2022-08-21T04:04:18;15.77;;;9.38;;
53151;SDS011;39234;53.158;6.322;2022-08-21T04:06:44;18.80;;;10.23;;
53151;SDS011;39234;53.158;6.322;2022-08-21T04:09:09;17.58;;;9.85;;
53151;SDS011;39234;53.158;6.322;2022-08-21T04:11:35;18.02;;;9.05;;
53151;SDS011;39234;53.158;6.322;2022-08-21T04:14:02;15.90;;;9.50;;
53151;SDS011;39234;53.158;6.322;2022-08-21T04:16:28;15.02;;;9.38;;
53151;SDS011;39234;53.158;6.322;2022-08-21T04:18:54;15.05;;;8.88;;
53151;SDS011;39234;53.158;6.322;2022-08-21T04:21:20;16.70;;;8.50;;
53151;SDS011;39234;53.158;6.322;2022-08-21T04:23:46;20.98;;;9.30;;
53151;SDS011;39234;53.158;6.322;2022-08-21T04:26:11;15.57;;;8.82;;
53151;SDS011;39234;53.158;6.322;2022-08-21T04:28:37;18.10;;;9.20;;
53151;SDS011;39234;53.158;6.322;2022-08-21T04:31:03;17.30;;;9.13;;
53151;SDS011;39234;53.158;6.322;2022-08-21T04:33:28;14.10;;;8.88;;
53151;SDS011;39234;53.158;6.322;2022-08-21T04:35:54;20.23;;;9.68;;
53151;SDS011;39234;53.158;6.322;2022-08-21T04:38:20;12.85;;;9.32;;
53151;SDS011;39234;53.158;6.322;2022-08-21T04:40:46;14.93;;;8.68;;
53151;SDS011;39234;53.158;6.322;2022-08-21T04:43:13;14.20;;;9.40;;
53151;SDS011;39234;53.158;6.322;2022-08-21T04:45:41;13.77;;;8.05;;
53151;SDS011;39234;53.158;6.322;2022-08-21T04:48:11;22.42;;;8.82;;
53151;SDS011;39234;53.158;6.322;2022-08-21T04:50:43;16.98;;;9.00;;
53151;SDS011;39234;53.158;6.322;2022-08-21T04:53:14;17.38;;;8.52;;
53151;SDS011;39234;53.158;6.322;2022-08-21T04:56:02;17.23;;;9.27;;
53151;SDS011;39234;53.158;6.322;2022-08-21T04:58:33;17.58;;;8.88;;
53151;SDS011;39234;53.158;6.322;2022-08-21T05:01:00;19.13;;;9.00;;
53151;SDS011;39234;53.158;6.322;2022-08-21T05:03:29;19.48;;;8.98;;
53151;SDS011;39234;53.158;6.322;2022-08-21T05:05:58;12.68;;;8.80;;
53151;SDS011;39234;53.158;6.322;2022-08-21T05:08:24;16.10;;;8.30;;
53151;SDS011;39234;53.158;6.322;2022-08-21T05:10:53;17.10;;;8.80;;
53151;SDS011;39234;53.158;6.322;2022-08-21T05:13:19;21.77;;;8.68;;
53151;SDS011;39234;53.158;6.322;2022-08-21T05:15:45;17.13;;;8.70;;
53151;SDS011;39234;53.158;6.322;2022-08-21T05:18:11;17.92;;;8.30;;
53151;SDS011;39234;53.158;6.322;2022-08-21T05:20:37;17.45;;;8.50;;
53151;SDS011;39234;53.158;6.322;2022-08-21T05:23:08;17.38;;;8.60;;
53151;SDS011;39234;53.158;6.322;2022-08-21T05:25:35;17.55;;;8.65;;
53151;SDS011;39234;53.158;6.322;2022-08-21T05:28:01;14.98;;;8.13;;
53151;SDS011;39234;53.158;6.322;2022-08-21T05:30:27;17.67;;;7.85;;
53151;SDS011;39234;53.158;6.322;2022-08-21T05:32:59;14.50;;;8.05;;
53151;SDS011;39234;53.158;6.322;2022-08-21T05:35:26;16.35;;;8.02;;
53151;SDS011;39234;53.158;6.322;2022-08-21T05:37:53;14.63;;;8.02;;
53151;SDS011;39234;53.158;6.322;2022-08-21T05:40:19;13.45;;;7.68;;
53151;SDS011;39234;53.158;6.322;2022-08-21T05:42:45;13.00;;;7.03;;
53151;SDS011;39234;53.158;6.322;2022-08-21T05:45:11;17.02;;;8.25;;
53151;SDS011;39234;53.158;6.322;2022-08-21T05:47:37;15.18;;;7.03;;
53151;SDS011;39234;53.158;6.322;2022-08-21T05:50:03;15.43;;;7.07;;
53151;SDS011;39234;53.158;6.322;2022-08-21T05:52:29;14.68;;;7.50;;
53151;SDS011;39234;53.158;6.322;2022-08-21T05:54:55;13.77;;;6.93;;
53151;SDS011;39234;53.158;6.322;2022-08-21T05:57:21;13.00;;;6.85;;
53151;SDS011;39234;53.158;6.322;2022-08-21T05:59:48;12.57;;;6.82;;
53151;SDS011;39234;53.158;6.322;2022-08-21T06:02:16;12.27;;;6.28;;
53151;SDS011;39234;53.158;6.322;2022-08-21T06:04:43;11.35;;;6.00;;
53151;SDS011;39234;53.158;6.322;2022-08-21T06:07:09;12.57;;;6.30;;
53151;SDS011;39234;53.158;6.322;2022-08-21T06:09:34;17.23;;;6.22;;
53151;SDS011;39234;53.158;6.322;2022-08-21T06:12:10;11.98;;;5.60;;
53151;SDS011;39234;53.158;6.322;2022-08-21T06:14:38;9.80;;;5.10;;
53151;SDS011;39234;53.158;6.322;2022-08-21T06:17:06;12.07;;;5.20;;
53151;SDS011;39234;53.158;6.322;2022-08-21T06:19:34;11.65;;;5.50;;
53151;SDS011;39234;53.158;6.322;2022-08-21T06:22:00;15.27;;;5.38;;
53151;SDS011;39234;53.158;6.322;2022-08-21T06:24:26;13.23;;;5.35;;
53151;SDS011;39234;53.158;6.322;2022-08-21T06:26:52;11.43;;;5.22;;
53151;SDS011;39234;53.158;6.322;2022-08-21T06:29:18;10.70;;;5.22;;
53151;SDS011;39234;53.158;6.322;2022-08-21T06:31:45;11.13;;;4.80;;
53151;SDS011;39234;53.158;6.322;2022-08-21T06:34:12;11.43;;;4.47;;
53151;SDS011;39234;53.158;6.322;2022-08-21T06:36:38;12.95;;;4.38;;
53151;SDS011;39234;53.158;6.322;2022-08-21T06:39:04;11.48;;;5.18;;
53151;SDS011;39234;53.158;6.322;2022-08-21T06:41:30;11.00;;;4.60;;
53151;SDS011;39234;53.158;6.322;2022-08-21T06:43:57;9.93;;;3.42;;
53151;SDS011;39234;53.158;6.322;2022-08-21T06:46:23;10.77;;;3.85;;
53151;SDS011;39234;53.158;6.322;2022-08-21T06:48:51;14.73;;;4.00;;
53151;SDS011;39234;53.158;6.322;2022-08-21T06:51:16;12.13;;;3.15;;
53151;SDS011;39234;53.158;6.322;2022-08-21T06:53:42;9.50;;;3.50;;
53151;SDS011;39234;53.158;6.322;2022-08-21T06:56:08;9.18;;;3.10;;
53151;SDS011;39234;53.158;6.322;2022-08-21T06:58:34;10.05;;;3.22;;
53151;SDS011;39234;53.158;6.322;2022-08-21T07:01:00;11.50;;;3.53;;
53151;SDS011;39234;53.158;6.322;2022-08-21T07:03:28;10.40;;;3.33;;
53151;SDS011;39234;53.158;6.322;2022-08-21T07:05:54;8.30;;;3.10;;
53151;SDS011;39234;53.158;6.322;2022-08-21T07:08:21;9.73;;;2.92;;
53151;SDS011;39234;53.158;6.322;2022-08-21T07:10:47;8.80;;;3.15;;
53151;SDS011;39234;53.158;6.322;2022-08-21T07:13:14;10.30;;;3.13;;
53151;SDS011;39234;53.158;6.322;2022-08-21T07:15:40;8.73;;;2.85;;
53151;SDS011;39234;53.158;6.322;2022-08-21T07:18:06;13.30;;;2.75;;
53151;SDS011;39234;53.158;6.322;2022-08-21T07:20:32;8.30;;;2.92;;
53151;SDS011;39234;53.158;6.322;2022-08-21T07:22:59;9.43;;;2.50;;
53151;SDS011;39234;53.158;6.322;2022-08-21T07:25:28;7.93;;;2.50;;
53151;SDS011;39234;53.158;6.322;2022-08-21T07:27:54;11.63;;;2.78;;
53151;SDS011;39234;53.158;6.322;2022-08-21T07:30:20;12.25;;;2.33;;
53151;SDS011;39234;53.158;6.322;2022-08-21T07:32:46;8.25;;;2.50;;
53151;SDS011;39234;53.158;6.322;2022-08-21T07:35:14;11.30;;;2.45;;
53151;SDS011;39234;53.158;6.322;2022-08-21T07:37:41;11.50;;;2.97;;
53151;SDS011;39234;53.158;6.322;2022-08-21T07:40:07;7.82;;;2.65;;
53151;SDS011;39234;53.158;6.322;2022-08-21T07:42:33;10.60;;;2.60;;
53151;SDS011;39234;53.158;6.322;2022-08-21T07:44:59;9.48;;;2.50;;
53151;SDS011;39234;53.158;6.322;2022-08-21T07:47:24;9.93;;;2.88;;
53151;SDS011;39234;53.158;6.322;2022-08-21T07:49:50;10.50;;;2.65;;
53151;SDS011;39234;53.158;6.322;2022-08-21T07:52:16;9.02;;;2.50;;
53151;SDS011;39234;53.158;6.322;2022-08-21T07:54:42;9.45;;;2.60;;
53151;SDS011;39234;53.158;6.322;2022-08-21T07:57:08;8.70;;;2.53;;
53151;SDS011;39234;53.158;6.322;2022-08-21T07:59:34;12.95;;;2.63;;
53151;SDS011;39234;53.158;6.322;2022-08-21T08:01:59;13.45;;;2.85;;
53151;SDS011;39234;53.158;6.322;2022-08-21T08:04:25;9.63;;;2.58;;
53151;SDS011;39234;53.158;6.322;2022-08-21T08:06:51;14.10;;;2.90;;
53151;SDS011;39234;53.158;6.322;2022-08-21T08:09:17;8.68;;;2.53;;
53151;SDS011;39234;53.158;6.322;2022-08-21T08:11:42;9.75;;;2.38;;
53151;SDS011;39234;53.158;6.322;2022-08-21T08:14:09;11.27;;;2.85;;
53151;SDS011;39234;53.158;6.322;2022-08-21T08:16:35;12.73;;;3.42;;
53151;SDS011;39234;53.158;6.322;2022-08-21T08:19:01;12.05;;;3.13;;
53151;SDS011;39234;53.158;6.322;2022-08-21T08:21:27;13.77;;;3.08;;
53151;SDS011;39234;53.158;6.322;2022-08-21T08:23:52;11.48;;;2.90;;
53151;SDS011;39234;53.158;6.322;2022-08-21T08:26:18;12.15;;;2.78;;
53151;SDS011;39234;53.158;6.322;2022-08-21T08:28:44;11.95;;;2.78;;
53151;SDS011;39234;53.158;6.322;2022-08-21T08:31:12;8.93;;;2.65;;
53151;SDS011;39234;53.158;6.322;2022-08-21T08:33:38;10.15;;;2.85;;
53151;SDS011;39234;53.158;6.322;2022-08-21T08:36:04;13.55;;;3.05;;
53151;SDS011;39234;53.158;6.322;2022-08-21T08:38:36;9.73;;;2.70;;
53151;SDS011;39234;53.158;6.322;2022-08-21T08:41:08;11.07;;;2.65;;
53151;SDS011;39234;53.158;6.322;2022-08-21T08:43:38;10.82;;;2.78;;
53151;SDS011;39234;53.158;6.322;2022-08-21T08:46:06;12.27;;;2.80;;
53151;SDS011;39234;53.158;6.322;2022-08-21T08:49:23;10.80;;;2.90;;
53151;SDS011;39234;53.158;6.322;2022-08-21T08:51:37;10.68;;;2.38;;
53151;SDS011;39234;53.158;6.322;2022-08-21T08:54:06;9.80;;;3.33;;
53151;SDS011;39234;53.158;6.322;2022-08-21T08:59:25;13.90;;;3.60;;
53151;SDS011;39234;53.158;6.322;2022-08-21T09:01:51;11.30;;;2.72;;
53151;SDS011;39234;53.158;6.322;2022-08-21T09:04:20;10.85;;;2.38;;
53151;SDS011;39234;53.158;6.322;2022-08-21T09:09:47;10.25;;;2.92;;
53151;SDS011;39234;53.158;6.322;2022-08-21T09:12:29;17.08;;;2.95;;
53151;SDS011;39234;53.158;6.322;2022-08-21T09:20:37;11.10;;;2.45;;
53151;SDS011;39234;53.158;6.322;2022-08-21T09:23:31;13.23;;;2.85;;
53151;SDS011;39234;53.158;6.322;2022-08-21T09:26:13;15.73;;;2.70;;
53151;SDS011;39234;53.158;6.322;2022-08-21T09:28:41;8.88;;;2.25;;
53151;SDS011;39234;53.158;6.322;2022-08-21T09:31:11;14.40;;;2.80;;
53151;SDS011;39234;53.158;6.322;2022-08-21T09:33:41;12.25;;;2.38;;
53151;SDS011;39234;53.158;6.322;2022-08-21T09:36:07;13.40;;;2.92;;
53151;SDS011;39234;53.158;6.322;2022-08-21T09:38:34;14.23;;;2.92;;
53151;SDS011;39234;53.158;6.322;2022-08-21T09:43:33;16.85;;;2.97;;
53151;SDS011;39234;53.158;6.322;2022-08-21T09:48:29;19.67;;;3.60;;
53151;SDS011;39234;53.158;6.322;2022-08-21T09:51:06;10.00;;;2.15;;
53151;SDS011;39234;53.158;6.322;2022-08-21T09:53:37;14.40;;;3.45;;
53151;SDS011;39234;53.158;6.322;2022-08-21T09:59:28;11.50;;;2.58;;
53151;SDS011;39234;53.158;6.322;2022-08-21T10:01:57;10.18;;;2.70;;
53151;SDS011;39234;53.158;6.322;2022-08-21T10:07:09;10.15;;;2.38;;
53151;SDS011;39234;53.158;6.322;2022-08-21T10:09:37;14.73;;;2.60;;
53151;SDS011;39234;53.158;6.322;2022-08-21T10:17:44;9.52;;;2.42;;
53151;SDS011;39234;53.158;6.322;2022-08-21T10:23:20;11.73;;;2.30;;
53151;SDS011;39234;53.158;6.322;2022-08-21T10:25:52;14.35;;;2.78;;
53151;SDS011;39234;53.158;6.322;2022-08-21T10:28:36;15.25;;;2.83;;
53151;SDS011;39234;53.158;6.322;2022-08-21T10:31:32;12.93;;;3.40;;
53151;SDS011;39234;53.158;6.322;2022-08-21T10:39:31;12.23;;;3.05;;
53151;SDS011;39234;53.158;6.322;2022-08-21T10:47:54;8.48;;;2.03;;
53151;SDS011;39234;53.158;6.322;2022-08-21T10:50:30;14.68;;;3.15;;
53151;SDS011;39234;53.158;6.322;2022-08-21T10:52:59;8.82;;;2.63;;
53151;SDS011;39234;53.158;6.322;2022-08-21T10:55:44;11.45;;;2.15;;
53151;SDS011;39234;53.158;6.322;2022-08-21T11:00:57;12.65;;;2.83;;
53151;SDS011;39234;53.158;6.322;2022-08-21T11:03:48;14.65;;;2.60;;
53151;SDS011;39234;53.158;6.322;2022-08-21T11:06:27;11.98;;;2.38;;
53151;SDS011;39234;53.158;6.322;2022-08-21T11:09:11;13.52;;;2.67;;
53151;SDS011;39234;53.158;6.322;2022-08-21T11:11:47;12.23;;;2.80;;
53151;SDS011;39234;53.158;6.322;2022-08-21T11:15:04;10.70;;;2.70;;
53151;SDS011;39234;53.158;6.322;2022-08-21T11:17:10;11.15;;;2.50;;
53151;SDS011;39234;53.158;6.322;2022-08-21T11:19:45;9.35;;;2.55;;
53151;SDS011;39234;53.158;6.322;2022-08-21T11:22:25;10.23;;;2.60;;
53151;SDS011;39234;53.158;6.322;2022-08-21T11:30:23;10.27;;;2.58;;
53151;SDS011;39234;53.158;6.322;2022-08-21T11:35:47;9.88;;;2.55;;
53151;SDS011;39234;53.158;6.322;2022-08-21T11:51:18;9.00;;;2.63;;
53151;SDS011;39234;53.158;6.322;2022-08-21T11:57:11;10.02;;;2.20;;
53151;SDS011;39234;53.158;6.322;2022-08-21T12:00:07;10.30;;;2.45;;
53151;SDS011;39234;53.158;6.322;2022-08-21T12:02:43;8.50;;;2.13;;
53151;SDS011;39234;53.158;6.322;2022-08-21T12:05:22;9.18;;;2.10;;
53151;SDS011;39234;53.158;6.322;2022-08-21T12:08:13;6.90;;;2.25;;
53151;SDS011;39234;53.158;6.322;2022-08-21T12:11:01;8.63;;;1.75;;
53151;SDS011;39234;53.158;6.322;2022-08-21T12:13:31;8.70;;;1.60;;
53151;SDS011;39234;53.158;6.322;2022-08-21T12:18:33;5.63;;;1.50;;
53151;SDS011;39234;53.158;6.322;2022-08-21T12:26:36;7.00;;;1.98;;
53151;SDS011;39234;53.158;6.322;2022-08-21T12:31:51;10.85;;;1.92;;
53151;SDS011;39234;53.158;6.322;2022-08-21T12:34:20;6.73;;;1.77;;
53151;SDS011;39234;53.158;6.322;2022-08-21T12:36:53;10.13;;;1.85;;
53151;SDS011;39234;53.158;6.322;2022-08-21T12:39:23;6.50;;;1.70;;
53151;SDS011;39234;53.158;6.322;2022-08-21T12:41:54;7.38;;;1.70;;
53151;SDS011;39234;53.158;6.322;2022-08-21T12:44:28;10.00;;;1.90;;
53151;SDS011;39234;53.158;6.322;2022-08-21T12:47:17;8.20;;;1.83;;
53151;SDS011;39234;53.158;6.322;2022-08-21T12:50:04;9.55;;;2.05;;
53151;SDS011;39234;53.158;6.322;2022-08-21T12:52:57;7.45;;;1.70;;
53151;SDS011;39234;53.158;6.322;2022-08-21T12:55:29;7.60;;;1.90;;
53151;SDS011;39234;53.158;6.322;2022-08-21T12:57:56;9.90;;;1.53;;
53151;SDS011;39234;53.158;6.322;2022-08-21T13:00:24;8.18;;;1.70;;
53151;SDS011;39234;53.158;6.322;2022-08-21T13:02:52;6.40;;;1.50;;
53151;SDS011;39234;53.158;6.322;2022-08-21T13:07:57;8.85;;;1.58;;
53151;SDS011;39234;53.158;6.322;2022-08-21T13:10:28;8.07;;;1.48;;
53151;SDS011;39234;53.158;6.322;2022-08-21T13:12:57;11.20;;;2.20;;
53151;SDS011;39234;53.158;6.322;2022-08-21T13:15:29;8.13;;;1.63;;
53151;SDS011;39234;53.158;6.322;2022-08-21T13:17:56;8.77;;;1.90;;
53151;SDS011;39234;53.158;6.322;2022-08-21T13:20:38;7.47;;;1.80;;
53151;SDS011;39234;53.158;6.322;2022-08-21T13:25:45;7.90;;;1.95;;
53151;SDS011;39234;53.158;6.322;2022-08-21T13:28:12;7.03;;;1.65;;
53151;SDS011;39234;53.158;6.322;2022-08-21T13:30:47;9.23;;;2.15;;
53151;SDS011;39234;53.158;6.322;2022-08-21T13:33:16;6.97;;;1.70;;
53151;SDS011;39234;53.158;6.322;2022-08-21T13:36:03;8.88;;;1.70;;
53151;SDS011;39234;53.158;6.322;2022-08-21T13:38:34;6.57;;;1.70;;
53151;SDS011;39234;53.158;6.322;2022-08-21T13:41:02;4.97;;;1.40;;
53151;SDS011;39234;53.158;6.322;2022-08-21T13:43:33;9.02;;;2.00;;
53151;SDS011;39234;53.158;6.322;2022-08-21T13:46:01;8.32;;;2.13;;
53151;SDS011;39234;53.158;6.322;2022-08-21T13:48:32;5.70;;;1.60;;
53151;SDS011;39234;53.158;6.322;2022-08-21T13:50:59;8.02;;;1.85;;
53151;SDS011;39234;53.158;6.322;2022-08-21T13:53:30;7.63;;;1.77;;
53151;SDS011;39234;53.158;6.322;2022-08-21T13:55:58;8.95;;;1.55;;
53151;SDS011;39234;53.158;6.322;2022-08-21T13:58:27;8.07;;;1.38;;
53151;SDS011;39234;53.158;6.322;2022-08-21T14:00:59;7.30;;;1.80;;
53151;SDS011;39234;53.158;6.322;2022-08-21T14:03:41;6.45;;;1.35;;
53151;SDS011;39234;53.158;6.322;2022-08-21T14:06:17;8.23;;;1.75;;
53151;SDS011;39234;53.158;6.322;2022-08-21T14:08:51;6.60;;;1.77;;
53151;SDS011;39234;53.158;6.322;2022-08-21T14:11:26;5.80;;;1.63;;
53151;SDS011;39234;53.158;6.322;2022-08-21T14:16:27;15.07;;;2.40;;
53151;SDS011;39234;53.158;6.322;2022-08-21T14:21:33;6.00;;;1.70;;
53151;SDS011;39234;53.158;6.322;2022-08-21T14:24:05;7.63;;;1.70;;
53151;SDS011;39234;53.158;6.322;2022-08-21T14:26:32;4.45;;;1.30;;
53151;SDS011;39234;53.158;6.322;2022-08-21T14:29:01;9.45;;;2.40;;
53151;SDS011;39234;53.158;6.322;2022-08-21T14:31:31;6.95;;;1.55;;
53151;SDS011;39234;53.158;6.322;2022-08-21T14:33:59;10.02;;;2.05;;
53151;SDS011;39234;53.158;6.322;2022-08-21T14:36:26;7.05;;;1.60;;
53151;SDS011;39234;53.158;6.322;2022-08-21T14:38:52;5.07;;;1.40;;
53151;SDS011;39234;53.158;6.322;2022-08-21T14:41:18;5.35;;;1.50;;
53151;SDS011;39234;53.158;6.322;2022-08-21T14:43:51;4.57;;;1.33;;
53151;SDS011;39234;53.158;6.322;2022-08-21T14:46:20;7.18;;;1.52;;
53151;SDS011;39234;53.158;6.322;2022-08-21T14:48:51;7.72;;;1.50;;
53151;SDS011;39234;53.158;6.322;2022-08-21T14:51:17;6.60;;;1.75;;
53151;SDS011;39234;53.158;6.322;2022-08-21T14:53:43;6.13;;;2.03;;
53151;SDS011;39234;53.158;6.322;2022-08-21T14:56:09;9.40;;;1.80;;
53151;SDS011;39234;53.158;6.322;2022-08-21T14:58:40;8.15;;;1.85;;
53151;SDS011;39234;53.158;6.322;2022-08-21T15:01:09;7.47;;;1.67;;
53151;SDS011;39234;53.158;6.322;2022-08-21T15:03:36;6.93;;;1.98;;
53151;SDS011;39234;53.158;6.322;2022-08-21T15:06:03;7.88;;;2.10;;
53151;SDS011;39234;53.158;6.322;2022-08-21T15:08:30;8.43;;;1.50;;
53151;SDS011;39234;53.158;6.322;2022-08-21T15:10:57;5.15;;;1.38;;
53151;SDS011;39234;53.158;6.322;2022-08-21T15:13:25;8.02;;;1.90;;
53151;SDS011;39234;53.158;6.322;2022-08-21T15:15:51;6.45;;;1.27;;
53151;SDS011;39234;53.158;6.322;2022-08-21T15:18:18;6.93;;;1.63;;
53151;SDS011;39234;53.158;6.322;2022-08-21T15:20:45;7.82;;;1.80;;
53151;SDS011;39234;53.158;6.322;2022-08-21T15:23:10;8.73;;;1.92;;
53151;SDS011;39234;53.158;6.322;2022-08-21T15:25:36;8.65;;;2.17;;
53151;SDS011;39234;53.158;6.322;2022-08-21T15:28:07;13.30;;;2.65;;
53151;SDS011;39234;53.158;6.322;2022-08-21T15:30:33;6.22;;;1.50;;
53151;SDS011;39234;53.158;6.322;2022-08-21T15:33:00;9.65;;;1.77;;
53151;SDS011;39234;53.158;6.322;2022-08-21T15:35:25;10.30;;;1.60;;
53151;SDS011;39234;53.158;6.322;2022-08-21T15:37:51;8.98;;;1.77;;
53151;SDS011;39234;53.158;6.322;2022-08-21T15:40:17;9.05;;;1.85;;
53151;SDS011;39234;53.158;6.322;2022-08-21T15:42:43;9.40;;;2.10;;
53151;SDS011;39234;53.158;6.322;2022-08-21T15:45:10;9.23;;;1.95;;
53151;SDS011;39234;53.158;6.322;2022-08-21T15:47:37;5.85;;;1.52;;
53151;SDS011;39234;53.158;6.322;2022-08-21T15:50:06;7.18;;;2.10;;
53151;SDS011;39234;53.158;6.322;2022-08-21T15:52:33;10.00;;;1.77;;
53151;SDS011;39234;53.158;6.322;2022-08-21T15:54:59;8.00;;;1.50;;
53151;SDS011;39234;53.158;6.322;2022-08-21T15:57:25;8.68;;;1.70;;
53151;SDS011;39234;53.158;6.322;2022-08-21T15:59:52;11.02;;;2.10;;
53151;SDS011;39234;53.158;6.322;2022-08-21T16:02:24;8.90;;;1.98;;
53151;SDS011;39234;53.158;6.322;2022-08-21T16:04:53;8.15;;;1.83;;
53151;SDS011;39234;53.158;6.322;2022-08-21T16:07:19;11.82;;;2.20;;
53151;SDS011;39234;53.158;6.322;2022-08-21T16:09:45;8.35;;;2.20;;
53151;SDS011;39234;53.158;6.322;2022-08-21T16:12:14;10.57;;;1.70;;
53151;SDS011;39234;53.158;6.322;2022-08-21T16:14:45;8.63;;;1.63;;
53151;SDS011;39234;53.158;6.322;2022-08-21T16:17:11;13.35;;;2.40;;
53151;SDS011;39234;53.158;6.322;2022-08-21T16:19:37;13.55;;;3.42;;